createdAt,value
2022-12-27T00:00:29.046Z,10.00
2022-12-27T00:07:11.987Z,10.50
2022-12-27T00:13:54.801Z,8.00
2022-12-27T00:20:37.125Z,7.90
2022-12-27T00:27:21.724Z,7.80
2022-12-27T00:34:07.115Z,7.50
2022-12-27T00:40:49.732Z,7.30
2022-12-27T00:47:32.240Z,7.30
2022-12-27T00:54:14.570Z,7.40
2022-12-27T01:01:09.358Z,7.20
2022-12-27T01:07:52.782Z,7.00
2022-12-27T01:14:35.571Z,8.50
2022-12-27T01:21:21.945Z,6.80
2022-12-27T01:28:05.083Z,6.60
2022-12-27T01:34:47.486Z,6.50
2022-12-27T01:41:52.046Z,6.90
2022-12-27T01:48:34.537Z,6.40
2022-12-27T01:55:31.820Z,6.10
2022-12-27T02:02:14.851Z,6.40
2022-12-27T02:09:16.842Z,5.90
2022-12-27T02:15:59.316Z,6.00
2022-12-27T02:23:40.011Z,5.90
2022-12-27T02:30:25.008Z,5.80
2022-12-27T02:37:10.408Z,6.10
2022-12-27T02:44:15.925Z,5.80
2022-12-27T02:51:50.570Z,5.40
2022-12-27T02:59:10.597Z,5.20
2022-12-27T03:06:38.595Z,5.30
2022-12-27T03:14:10.833Z,5.00
2022-12-27T03:28:32.189Z,5.10
2022-12-27T03:35:19.686Z,5.10
2022-12-27T03:42:30.343Z,4.90
2022-12-27T03:49:18.794Z,4.50
2022-12-27T03:56:06.388Z,6.50
2022-12-27T04:02:48.955Z,4.30
2022-12-27T04:09:50.781Z,5.30
2022-12-27T04:16:51.575Z,4.20
2022-12-27T04:23:52.541Z,3.70
2022-12-27T04:31:08.280Z,4.40
2022-12-27T04:37:51.011Z,3.60
2022-12-27T04:44:57.067Z,4.20
2022-12-27T04:51:57.903Z,4.10
2022-12-27T04:59:00.417Z,4.00
2022-12-27T05:05:44.769Z,3.70
2022-12-27T05:12:46.063Z,6.90
2022-12-27T05:19:28.506Z,4.10
2022-12-27T05:26:10.857Z,3.70
2022-12-27T05:32:56.665Z,6.60
2022-12-27T05:39:38.998Z,4.00
2022-12-27T05:46:22.221Z,3.40
2022-12-27T05:53:04.648Z,3.20
2022-12-27T05:59:47.721Z,3.00
2022-12-27T06:06:30.107Z,3.30
2022-12-27T06:13:13.471Z,3.30
2022-12-27T06:19:57.411Z,4.10
2022-12-27T06:26:40.069Z,4.20
2022-12-27T06:33:29.234Z,3.60
2022-12-27T06:40:11.998Z,3.20
2022-12-27T06:46:54.366Z,3.80
2022-12-27T06:53:43.001Z,3.40
2022-12-27T07:00:25.532Z,3.30
2022-12-27T07:07:13.600Z,3.50
2022-12-27T07:13:58.428Z,3.10
2022-12-27T07:20:40.788Z,2.90
2022-12-27T07:27:23.695Z,5.70
2022-12-27T07:34:06.553Z,3.50
2022-12-27T07:41:21.423Z,4.10
2022-12-27T07:48:13.126Z,3.50
2022-12-27T07:54:55.464Z,2.90
2022-12-27T08:01:57.496Z,2.80
2022-12-27T08:09:24.150Z,3.70
2022-12-27T08:16:07.115Z,4.60
2022-12-27T08:22:49.600Z,5.10
2022-12-27T08:29:32.136Z,5.40
2022-12-27T08:36:45.293Z,5.30
2022-12-27T08:43:17.993Z,5.10
2022-12-27T08:50:00.311Z,4.70
2022-12-27T08:56:43.680Z,6.50
2022-12-27T09:03:26.098Z,7.90
2022-12-27T09:10:23.392Z,9.10
2022-12-27T09:17:08.915Z,9.70
2022-12-27T09:23:51.759Z,9.80
2022-12-27T09:30:34.114Z,10.30
2022-12-27T09:37:16.597Z,11.70
2022-12-27T09:44:04.406Z,13.10
2022-12-27T09:50:54.361Z,12.30
2022-12-27T09:57:44.823Z,15.10
2022-12-27T10:04:53.024Z,11.90
2022-12-27T10:11:51.270Z,12.00
2022-12-27T10:19:03.444Z,10.10
2022-12-27T10:25:47.872Z,10.00
2022-12-27T10:32:30.918Z,9.40
2022-12-27T10:39:18.929Z,9.50
2022-12-27T10:46:21.597Z,10.40
2022-12-27T10:53:04.215Z,11.10
2022-12-27T11:00:06.823Z,9.20
2022-12-27T11:06:51.839Z,7.60
2022-12-27T11:13:34.243Z,9.70
2022-12-27T11:20:24.722Z,8.40
2022-12-27T11:27:29.696Z,8.80
2022-12-27T11:34:32.204Z,8.60
2022-12-27T11:41:28.594Z,8.60
2022-12-27T11:48:16.853Z,8.70
2022-12-27T11:55:27.229Z,8.90
2022-12-27T12:02:27.239Z,9.10
2022-12-27T12:09:26.760Z,9.20
2022-12-27T12:16:14.560Z,9.40
2022-12-27T12:23:29.168Z,9.70
2022-12-27T12:30:39.457Z,9.70
2022-12-27T12:38:02.272Z,9.90
2022-12-27T12:45:15.433Z,9.90
2022-12-27T12:52:40.091Z,10.10
2022-12-27T12:59:56.494Z,10.10
2022-12-27T13:07:03.411Z,10.20
2022-12-27T13:14:03.376Z,10.40
2022-12-27T13:21:00.524Z,10.20
2022-12-27T13:27:57.009Z,10.30
2022-12-27T13:34:47.990Z,10.70
2022-12-27T13:42:02.427Z,11.00
2022-12-27T13:49:07.405Z,11.00
2022-12-27T13:56:14.680Z,10.50
2022-12-27T14:03:33.382Z,10.30
2022-12-27T14:10:44.968Z,10.00
2022-12-27T14:18:01.635Z,10.20
2022-12-27T14:25:14.787Z,10.20
2022-12-27T14:32:38.197Z,10.00
2022-12-27T14:39:48.825Z,10.00
2022-12-27T14:47:07.588Z,9.80
2022-12-27T14:54:08.847Z,9.70
2022-12-27T15:01:14.567Z,9.50
2022-12-27T15:08:25.459Z,9.40
2022-12-27T15:15:15.015Z,9.40
2022-12-27T15:22:00.171Z,9.20
2022-12-27T15:29:07.254Z,8.80
2022-12-27T15:35:56.006Z,8.70
2022-12-27T15:42:57.751Z,8.50
2022-12-27T15:50:13.014Z,8.40
2022-12-27T15:57:28.649Z,8.30
2022-12-27T16:04:41.017Z,8.10
2022-12-27T16:12:02.853Z,7.90
2022-12-27T16:19:00.813Z,7.90
2022-12-27T16:25:43.676Z,8.30
2022-12-27T16:32:28.226Z,7.70
2022-12-27T16:39:27.891Z,7.60
2022-12-27T16:46:28.730Z,7.50
2022-12-27T16:53:47.587Z,7.40
2022-12-27T17:00:45.130Z,7.20
2022-12-27T17:07:52.569Z,7.20
2022-12-27T17:14:38.061Z,7.20
2022-12-27T17:21:30.496Z,7.00
2022-12-27T17:28:22.653Z,6.90
2022-12-27T17:35:15.520Z,6.70
2022-12-27T17:42:34.517Z,6.40
2022-12-27T17:49:17.305Z,6.30
2022-12-27T17:56:28.983Z,6.00
2022-12-27T18:03:14.198Z,5.70
2022-12-27T18:10:34.408Z,5.60
2022-12-27T18:17:43.053Z,5.50
2022-12-27T18:24:33.467Z,5.30
2022-12-27T18:31:38.066Z,5.10
2022-12-27T18:38:34.961Z,5.10
2022-12-27T18:45:23.904Z,5.10
2022-12-27T18:52:14.040Z,4.90
2022-12-27T18:59:05.885Z,4.90
2022-12-27T19:06:13.069Z,4.90
2022-12-27T19:12:56.977Z,4.80
2022-12-27T19:19:39.475Z,4.60
2022-12-27T19:26:28.388Z,4.80
2022-12-27T19:33:27.034Z,4.50
2022-12-27T19:40:14.610Z,4.40
2022-12-27T19:46:56.887Z,4.40
2022-12-27T19:53:41.191Z,4.20
2022-12-27T20:00:24.559Z,4.00
2022-12-27T20:07:17.284Z,4.00
2022-12-27T20:14:00.338Z,3.80
2022-12-27T20:20:43.524Z,3.60
2022-12-27T20:27:26.222Z,3.70
2022-12-27T20:34:10.128Z,3.70
2022-12-27T20:40:52.801Z,3.70
2022-12-27T20:47:35.632Z,3.70
2022-12-27T20:54:18.051Z,3.70
2022-12-27T21:01:17.801Z,3.70
2022-12-27T21:08:00.235Z,3.50
2022-12-27T21:15:08.683Z,3.30
2022-12-27T21:21:51.013Z,3.40
2022-12-27T21:28:34.127Z,3.20
2022-12-27T21:35:16.509Z,3.30
2022-12-27T21:41:58.893Z,3.30
2022-12-27T21:48:42.055Z,3.30
2022-12-27T21:55:24.357Z,3.30
2022-12-27T22:02:06.740Z,3.40
2022-12-27T22:08:52.479Z,3.40
2022-12-27T22:15:34.832Z,3.50
2022-12-27T22:22:17.116Z,3.50
2022-12-27T22:28:59.800Z,3.50
2022-12-27T22:35:44.737Z,3.50
2022-12-27T22:42:27.127Z,3.50
2022-12-27T22:49:09.417Z,3.50
2022-12-27T22:55:51.723Z,3.40
2022-12-27T23:02:34.185Z,3.40
2022-12-27T23:09:16.654Z,3.50
2022-12-27T23:16:00.873Z,3.50
2022-12-27T23:22:43.640Z,3.60
2022-12-27T23:29:25.962Z,3.70
2022-12-27T23:36:12.825Z,3.70
2022-12-27T23:43:12.462Z,3.70
2022-12-27T23:50:00.812Z,3.80
2022-12-27T23:57:22.248Z,3.90
